Ide Min — PC8366 — position and weather

sailwx.info

Track history (hours):
 
Tides and Currents Weather Stations Pressure Air Temp Water Temp Dewpoint Dewpoint Depression Visibility Wind Speed Wind Dir Waves Ship Positions

Ide Min (Netherlands)

Ship's website: http://www.idemin.nl/english/english.html

Last reported at 2015-Aug-02 19:33 UTC. Time now 2015-Aug-02 20:27 UTC.
Position N 54°22' E 010°09'.

Length 40 m; draft 2.4 m.

MMSI: 244537000.

Date/timePositionNaut miles runAvg speedWind from/ knotsBaromVisibWave heightAir tempDewpointWater temp
2015-Aug-02 19:33N 54°22' E 010°09'0 0.0
2015-Aug-02 18:33N 54°22' E 010°09'0 0.0
2015-Aug-02 17:33N 54°22' E 010°09'0 0.2
2015-Aug-02 16:33N 54°22' E 010°09'3 2.9
2015-Aug-02 15:33N 54°25' E 010°12'5 5.0
2015-Aug-02 14:33N 54°29' E 010°15'6 6.1
2015-Aug-02 13:33N 54°35' E 010°17'5 4.8
2015-Aug-02 12:33N 54°40' E 010°20'0 0.2
2015-Aug-02 11:33N 54°40' E 010°20'0 0.1
2015-Aug-02 10:33N 54°40' E 010°20'3 3.2
2015-Aug-02 09:33N 54°42' E 010°24'6 5.9
2015-Aug-02 08:30N 54°47' E 010°30'4 0.4
2015-Aug-01 20:08N 54°51' E 010°31'0 0.0
2015-Aug-01 19:31N 54°51' E 010°31'0 0.0
2015-Aug-01 16:30N 54°51' E 010°31'3 3.1
2015-Aug-01 15:32N 54°49' E 010°28'5 4.7
2015-Aug-01 14:32N 54°46' E 010°21'2 2.0
2015-Aug-01 13:33N 54°45' E 010°19'4 4.5
2015-Aug-01 12:33N 54°41' E 010°16'4 4.5
2015-Aug-01 11:33N 54°37' E 010°14'4 3.9
2015-Aug-01 10:33N 54°33' E 010°13'3 2.8
2015-Aug-01 09:33N 54°30' E 010°12'2 2.0
2015-Aug-01 08:33N 54°28' E 010°13'4 3.8
2015-Aug-01 07:33N 54°24' E 010°12'3 2.5
2015-Aug-01 06:32N 54°22' E 010°09'0 0.0
2015-Aug-01 05:32N 54°22' E 010°09'0 0.0
2015-Aug-01 04:32N 54°22' E 010°09'0 0.0
2015-Aug-01 03:32N 54°22' E 010°09'0 0.0
2015-Aug-01 02:32N 54°22' E 010°09'0 0.0
2015-Aug-01 01:32N 54°22' E 010°09'0 0.0
2015-Aug-01 00:32N 54°22' E 010°09'0 0.0
2015-Jul-31 23:32N 54°22' E 010°09'0 0.0
2015-Jul-31 22:32N 54°22' E 010°09'0 0.0
2015-Jul-31 21:32N 54°22' E 010°09'0 0.0
2015-Jul-31 20:32N 54°22' E 010°09'0 0.0
2015-Jul-31 19:32N 54°22' E 010°09'0 0.0
2015-Jul-31 18:32N 54°22' E 010°09'0 0.0
2015-Jul-31 17:32N 54°22' E 010°09'0 0.0
2015-Jul-31 16:32N 54°22' E 010°09'0 0.0
2015-Jul-31 15:32N 54°22' E 010°09'0 0.0
2015-Jul-31 14:32N 54°22' E 010°09'0 0.0
2015-Jul-31 13:32N 54°22' E 010°09'1 0.7
2015-Jul-31 12:33N 54°23' E 010°10'5 5.3
2015-Jul-31 11:33N 54°28' E 010°12'7 7.1
2015-Jul-31 10:33N 54°34' E 010°06'7 7.3
2015-Jul-31 09:33N 54°41' E 010°03'8 8.2
2015-Jul-31 08:33N 54°48' E 009°56'  
2015-Jul-28 14:24N 55°03' E 010°10'3 3.9
2015-Jul-28 13:33N 55°01' E 010°14'4 4.1
2015-Jul-28 12:33N 54°58' E 010°20'4 4.1
2015-Jul-28 11:33N 54°57' E 010°26'3 2.9
2015-Jul-28 10:30N 54°55' E 010°31'3 3.1
2015-Jul-28 09:32N 54°52' E 010°33'1 1.2
2015-Jul-28 08:33N 54°51' E 010°31'0 0.0
2015-Jul-28 06:33N 54°51' E 010°31'0 0.0
2015-Jul-28 05:15N 54°51' E 010°31'0 0.0
2015-Jul-27 20:33N 54°51' E 010°31'0 0.0
2015-Jul-27 19:32N 54°51' E 010°31'0 0.0
2015-Jul-27 18:33N 54°51' E 010°31'0 0.0
2015-Jul-27 17:32N 54°51' E 010°31'2 2.5
2015-Jul-27 16:33N 54°49' E 010°32'7 6.5
2015-Jul-27 15:33N 54°43' E 010°27'6 6.3
2015-Jul-27 14:33N 54°37' E 010°23'5 5.1
2015-Jul-27 13:33N 54°33' E 010°19'5 4.9
2015-Jul-27 12:33N 54°28' E 010°15'5 5.0
2015-Jul-27 11:33N 54°24' E 010°12'2 2.2
2015-Jul-27 10:33N 54°22' E 010°09'0 0.0
2015-Jul-27 09:33N 54°22' E 010°09'0 0.0
2015-Jul-27 08:33N 54°22' E 010°09'0 0.0
2015-Jul-27 07:33N 54°22' E 010°09'0 0.0
2015-Jul-27 06:33N 54°22' E 010°09'0 0.0
2015-Jul-27 05:33N 54°22' E 010°09'0 0.0
2015-Jul-27 04:33N 54°22' E 010°09'0 0.0
2015-Jul-27 03:33N 54°22' E 010°09'0 0.0
2015-Jul-27 02:33N 54°22' E 010°09'0 0.0
2015-Jul-27 01:33N 54°22' E 010°09'0 0.0
2015-Jul-27 00:33N 54°22' E 010°09'0 0.0
2015-Jul-26 23:33N 54°22' E 010°09'0 0.0
2015-Jul-26 22:32N 54°22' E 010°09'0 0.0
2015-Jul-26 21:32N 54°22' E 010°09'0 0.0
2015-Jul-26 20:29N 54°22' E 010°09'0 0.0
2015-Jul-26 19:32N 54°22' E 010°09'0 0.0
2015-Jul-26 18:32N 54°22' E 010°09'0 0.0
2015-Jul-26 17:32N 54°22' E 010°09'0 0.0
2015-Jul-26 16:32N 54°22' E 010°09'0 0.0
2015-Jul-26 15:32N 54°22' E 010°09'0 0.0
2015-Jul-26 14:32N 54°22' E 010°09'0 0.0
2015-Jul-26 13:32N 54°22' E 010°09'0 0.0
2015-Jul-26 12:32N 54°22' E 010°09'0 0.0
2015-Jul-26 10:32N 54°22' E 010°09'0 0.0
2015-Jul-26 09:32N 54°22' E 010°09'0 0.0
2015-Jul-26 08:32N 54°22' E 010°09'0 0.0
2015-Jul-26 07:32N 54°22' E 010°09'0 0.0
2015-Jul-26 06:32N 54°22' E 010°09'0 0.0
2015-Jul-26 05:32N 54°22' E 010°09'0 0.0
2015-Jul-26 04:32N 54°22' E 010°09'0 0.0
2015-Jul-26 03:32N 54°22' E 010°09'0 0.0
2015-Jul-26 02:32N 54°22' E 010°09'0 0.0
2015-Jul-26 01:32N 54°22' E 010°09'0 0.0
2015-Jul-26 00:32N 54°22' E 010°09'0 0.0
2015-Jul-25 23:32N 54°22' E 010°09'0 0.0
2015-Jul-25 22:32N 54°22' E 010°09'0 0.0
2015-Jul-25 21:32N 54°22' E 010°09'0 0.0
2015-Jul-25 20:32N 54°22' E 010°09'0 0.0
2015-Jul-25 19:32N 54°22' E 010°09'0 0.0
2015-Jul-25 18:32N 54°22' E 010°09'0 0.0
2015-Jul-25 17:32N 54°22' E 010°09'0 0.0
2015-Jul-25 16:32N 54°22' E 010°09'0 0.0
2015-Jul-25 14:32N 54°22' E 010°09'0 0.0
2015-Jul-25 13:32N 54°22' E 010°09'0 0.0
2015-Jul-25 12:32N 54°22' E 010°09'0 0.0
2015-Jul-25 11:32N 54°22' E 010°09'0 0.0
2015-Jul-25 10:32N 54°22' E 010°09'0 0.0
2015-Jul-25 09:32N 54°22' E 010°09'0 0.0
2015-Jul-25 08:32N 54°22' E 010°09'0 0.0
2015-Jul-25 07:32N 54°22' E 010°09'0 0.0
2015-Jul-25 06:32N 54°22' E 010°09'0 0.0
2015-Jul-25 05:32N 54°22' E 010°09'0 0.0
2015-Jul-25 04:32N 54°22' E 010°09'0 0.0
2015-Jul-25 03:32N 54°22' E 010°09'0 0.0
2015-Jul-25 02:32N 54°22' E 010°09'0 0.0
2015-Jul-25 01:32N 54°22' E 010°09'0 0.0
2015-Jul-25 00:32N 54°22' E 010°09'0 0.0
2015-Jul-24 23:32N 54°22' E 010°09'0 0.0
2015-Jul-24 22:32N 54°22' E 010°09'0 0.0
2015-Jul-24 21:32N 54°22' E 010°09'0 0.0
2015-Jul-24 20:32N 54°22' E 010°09'0 0.0
2015-Jul-24 19:32N 54°22' E 010°09'0 0.0
2015-Jul-24 18:32N 54°22' E 010°09'0 0.0
2015-Jul-24 17:32N 54°22' E 010°09'4 0.8
2015-Jul-24 12:34N 54°25' E 010°12'5 4.8
2015-Jul-24 11:34N 54°29' E 010°08'6 5.7
2015-Jul-24 10:34N 54°29' E 009°58'2 2.3
2015-Jul-24 09:34N 54°28' E 009°55'0 0.4
2015-Jul-24 08:34N 54°28' E 009°54'0 0.2
2015-Jul-24 07:34N 54°28' E 009°54'2 2.0
2015-Jul-24 06:32N 54°28' E 009°50'0 0.0
2015-Jul-24 05:32N 54°28' E 009°50'0 0.0
2015-Jul-24 04:29N 54°28' E 009°50'0 0.0
2015-Jul-24 03:32N 54°28' E 009°50'0 0.0
2015-Jul-24 02:29N 54°28' E 009°50'0 0.0
2015-Jul-24 01:32N 54°28' E 009°50'0 0.0
2015-Jul-24 00:26N 54°28' E 009°50'0 0.0
2015-Jul-23 23:23N 54°28' E 009°50'0 0.0
2015-Jul-23 22:23N 54°28' E 009°50'0 0.0
2015-Jul-23 21:29N 54°28' E 009°50'0 0.0
2015-Jul-23 20:32N 54°28' E 009°50'  
Track history (hours):
 
Tides and Currents Weather Stations Pressure Air Temp Water Temp Dewpoint Dewpoint Depression Visibility Wind Speed Wind Dir Waves Ship Positions

Ide Min (Netherlands)

Ship's website: http://www.idemin.nl/english/english.html

Last reported at 2015-Aug-02 19:33 UTC. Time now 2015-Aug-02 20:27 UTC.
Position N 54°22' E 010°09'.

Length 40 m; draft 2.4 m.

MMSI: 244537000.

Date/timePositionNaut miles runAvg speedWind from/ knotsBaromVisibWave heightAir tempDewpointWater temp
2015-Aug-02 19:33N 54°22' E 010°09'0 0.0
2015-Aug-02 18:33N 54°22' E 010°09'0 0.0
2015-Aug-02 17:33N 54°22' E 010°09'0 0.2
2015-Aug-02 16:33N 54°22' E 010°09'3 2.9
2015-Aug-02 15:33N 54°25' E 010°12'5 5.0
2015-Aug-02 14:33N 54°29' E 010°15'6 6.1
2015-Aug-02 13:33N 54°35' E 010°17'5 4.8
2015-Aug-02 12:33N 54°40' E 010°20'0 0.2
2015-Aug-02 11:33N 54°40' E 010°20'0 0.1
2015-Aug-02 10:33N 54°40' E 010°20'3 3.2
2015-Aug-02 09:33N 54°42' E 010°24'6 5.9
2015-Aug-02 08:30N 54°47' E 010°30'4 0.4
2015-Aug-01 20:08N 54°51' E 010°31'0 0.0
2015-Aug-01 19:31N 54°51' E 010°31'0 0.0
2015-Aug-01 16:30N 54°51' E 010°31'3 3.1
2015-Aug-01 15:32N 54°49' E 010°28'5 4.7
2015-Aug-01 14:32N 54°46' E 010°21'2 2.0
2015-Aug-01 13:33N 54°45' E 010°19'4 4.5
2015-Aug-01 12:33N 54°41' E 010°16'4 4.5
2015-Aug-01 11:33N 54°37' E 010°14'4 3.9
2015-Aug-01 10:33N 54°33' E 010°13'3 2.8
2015-Aug-01 09:33N 54°30' E 010°12'2 2.0
2015-Aug-01 08:33N 54°28' E 010°13'4 3.8
2015-Aug-01 07:33N 54°24' E 010°12'3 2.5
2015-Aug-01 06:32N 54°22' E 010°09'0 0.0
2015-Aug-01 05:32N 54°22' E 010°09'0 0.0
2015-Aug-01 04:32N 54°22' E 010°09'0 0.0
2015-Aug-01 03:32N 54°22' E 010°09'0 0.0
2015-Aug-01 02:32N 54°22' E 010°09'0 0.0
2015-Aug-01 01:32N 54°22' E 010°09'0 0.0
2015-Aug-01 00:32N 54°22' E 010°09'0 0.0
2015-Jul-31 23:32N 54°22' E 010°09'0 0.0
2015-Jul-31 22:32N 54°22' E 010°09'0 0.0
2015-Jul-31 21:32N 54°22' E 010°09'0 0.0
2015-Jul-31 20:32N 54°22' E 010°09'0 0.0
2015-Jul-31 19:32N 54°22' E 010°09'0 0.0
2015-Jul-31 18:32N 54°22' E 010°09'0 0.0
2015-Jul-31 17:32N 54°22' E 010°09'0 0.0
2015-Jul-31 16:32N 54°22' E 010°09'0 0.0
2015-Jul-31 15:32N 54°22' E 010°09'0 0.0
2015-Jul-31 14:32N 54°22' E 010°09'0 0.0
2015-Jul-31 13:32N 54°22' E 010°09'1 0.7
2015-Jul-31 12:33N 54°23' E 010°10'5 5.3
2015-Jul-31 11:33N 54°28' E 010°12'7 7.1
2015-Jul-31 10:33N 54°34' E 010°06'7 7.3
2015-Jul-31 09:33N 54°41' E 010°03'8 8.2
2015-Jul-31 08:33N 54°48' E 009°56'  
2015-Jul-28 14:24N 55°03' E 010°10'3 3.9
2015-Jul-28 13:33N 55°01' E 010°14'4 4.1
2015-Jul-28 12:33N 54°58' E 010°20'4 4.1
2015-Jul-28 11:33N 54°57' E 010°26'3 2.9
2015-Jul-28 10:30N 54°55' E 010°31'3 3.1
2015-Jul-28 09:32N 54°52' E 010°33'1 1.2
2015-Jul-28 08:33N 54°51' E 010°31'0 0.0
2015-Jul-28 06:33N 54°51' E 010°31'0 0.0
2015-Jul-28 05:15N 54°51' E 010°31'0 0.0
2015-Jul-27 20:33N 54°51' E 010°31'0 0.0
2015-Jul-27 19:32N 54°51' E 010°31'0 0.0
2015-Jul-27 18:33N 54°51' E 010°31'0 0.0
2015-Jul-27 17:32N 54°51' E 010°31'2 2.5
2015-Jul-27 16:33N 54°49' E 010°32'7 6.5
2015-Jul-27 15:33N 54°43' E 010°27'6 6.3
2015-Jul-27 14:33N 54°37' E 010°23'5 5.1
2015-Jul-27 13:33N 54°33' E 010°19'5 4.9
2015-Jul-27 12:33N 54°28' E 010°15'5 5.0
2015-Jul-27 11:33N 54°24' E 010°12'2 2.2
2015-Jul-27 10:33N 54°22' E 010°09'0 0.0
2015-Jul-27 09:33N 54°22' E 010°09'0 0.0
2015-Jul-27 08:33N 54°22' E 010°09'0 0.0
2015-Jul-27 07:33N 54°22' E 010°09'0 0.0
2015-Jul-27 06:33N 54°22' E 010°09'0 0.0
2015-Jul-27 05:33N 54°22' E 010°09'0 0.0
2015-Jul-27 04:33N 54°22' E 010°09'0 0.0
2015-Jul-27 03:33N 54°22' E 010°09'0 0.0
2015-Jul-27 02:33N 54°22' E 010°09'0 0.0
2015-Jul-27 01:33N 54°22' E 010°09'0 0.0
2015-Jul-27 00:33N 54°22' E 010°09'0 0.0
2015-Jul-26 23:33N 54°22' E 010°09'0 0.0
2015-Jul-26 22:32N 54°22' E 010°09'0 0.0
2015-Jul-26 21:32N 54°22' E 010°09'0 0.0
2015-Jul-26 20:29N 54°22' E 010°09'0 0.0
2015-Jul-26 19:32N 54°22' E 010°09'0 0.0
2015-Jul-26 18:32N 54°22' E 010°09'0 0.0
2015-Jul-26 17:32N 54°22' E 010°09'0 0.0
2015-Jul-26 16:32N 54°22' E 010°09'0 0.0
2015-Jul-26 15:32N 54°22' E 010°09'0 0.0
2015-Jul-26 14:32N 54°22' E 010°09'0 0.0
2015-Jul-26 13:32N 54°22' E 010°09'0 0.0
2015-Jul-26 12:32N 54°22' E 010°09'0 0.0
2015-Jul-26 10:32N 54°22' E 010°09'0 0.0
2015-Jul-26 09:32N 54°22' E 010°09'0 0.0
2015-Jul-26 08:32N 54°22' E 010°09'0 0.0
2015-Jul-26 07:32N 54°22' E 010°09'0 0.0
2015-Jul-26 06:32N 54°22' E 010°09'0 0.0
2015-Jul-26 05:32N 54°22' E 010°09'0 0.0
2015-Jul-26 04:32N 54°22' E 010°09'0 0.0
2015-Jul-26 03:32N 54°22' E 010°09'0 0.0
2015-Jul-26 02:32N 54°22' E 010°09'0 0.0
2015-Jul-26 01:32N 54°22' E 010°09'0 0.0
2015-Jul-26 00:32N 54°22' E 010°09'0 0.0
2015-Jul-25 23:32N 54°22' E 010°09'0 0.0
2015-Jul-25 22:32N 54°22' E 010°09'0 0.0
2015-Jul-25 21:32N 54°22' E 010°09'0 0.0
2015-Jul-25 20:32N 54°22' E 010°09'0 0.0
2015-Jul-25 19:32N 54°22' E 010°09'0 0.0
2015-Jul-25 18:32N 54°22' E 010°09'0 0.0
2015-Jul-25 17:32N 54°22' E 010°09'0 0.0
2015-Jul-25 16:32N 54°22' E 010°09'0 0.0
2015-Jul-25 14:32N 54°22' E 010°09'0 0.0
2015-Jul-25 13:32N 54°22' E 010°09'0 0.0
2015-Jul-25 12:32N 54°22' E 010°09'0 0.0
2015-Jul-25 11:32N 54°22' E 010°09'0 0.0
2015-Jul-25 10:32N 54°22' E 010°09'0 0.0
2015-Jul-25 09:32N 54°22' E 010°09'0 0.0
2015-Jul-25 08:32N 54°22' E 010°09'0 0.0
2015-Jul-25 07:32N 54°22' E 010°09'0 0.0
2015-Jul-25 06:32N 54°22' E 010°09'0 0.0
2015-Jul-25 05:32N 54°22' E 010°09'0 0.0
2015-Jul-25 04:32N 54°22' E 010°09'0 0.0
2015-Jul-25 03:32N 54°22' E 010°09'0 0.0
2015-Jul-25 02:32N 54°22' E 010°09'0 0.0
2015-Jul-25 01:32N 54°22' E 010°09'0 0.0
2015-Jul-25 00:32N 54°22' E 010°09'0 0.0
2015-Jul-24 23:32N 54°22' E 010°09'0 0.0
2015-Jul-24 22:32N 54°22' E 010°09'0 0.0
2015-Jul-24 21:32N 54°22' E 010°09'0 0.0
2015-Jul-24 20:32N 54°22' E 010°09'0 0.0
2015-Jul-24 19:32N 54°22' E 010°09'0 0.0
2015-Jul-24 18:32N 54°22' E 010°09'0 0.0
2015-Jul-24 17:32N 54°22' E 010°09'4 0.8
2015-Jul-24 12:34N 54°25' E 010°12'5 4.8
2015-Jul-24 11:34N 54°29' E 010°08'6 5.7
2015-Jul-24 10:34N 54°29' E 009°58'2 2.3
2015-Jul-24 09:34N 54°28' E 009°55'0 0.4
2015-Jul-24 08:34N 54°28' E 009°54'0 0.2
2015-Jul-24 07:34N 54°28' E 009°54'2 2.0
2015-Jul-24 06:32N 54°28' E 009°50'0 0.0
2015-Jul-24 05:32N 54°28' E 009°50'0 0.0
2015-Jul-24 04:29N 54°28' E 009°50'0 0.0
2015-Jul-24 03:32N 54°28' E 009°50'0 0.0
2015-Jul-24 02:29N 54°28' E 009°50'0 0.0
2015-Jul-24 01:32N 54°28' E 009°50'0 0.0
2015-Jul-24 00:26N 54°28' E 009°50'0 0.0
2015-Jul-23 23:23N 54°28' E 009°50'0 0.0
2015-Jul-23 22:23N 54°28' E 009°50'0 0.0
2015-Jul-23 21:29N 54°28' E 009°50'0 0.0
2015-Jul-23 20:32N 54°28' E 009°50'  

Dump ship's entire track history